sensor_id;sensor_type;location;lat;lon;timestamp;pressure;altitude;pressure_sealevel;temperature;humidity
9839;BME280;4958;48.150;11.506;2022-12-18T00:14:30;96625.28;;;-2.48;91.14
9839;BME280;4958;48.150;11.506;2022-12-18T00:23:57;96619.34;;;-2.83;94.60
9839;BME280;4958;48.150;11.506;2022-12-18T00:50:29;96652.81;;;-2.44;90.30
9839;BME280;4958;48.150;11.506;2022-12-18T00:53:37;96656.88;;;-2.58;91.33
9839;BME280;4958;48.150;11.506;2022-12-18T01:00:23;96659.53;;;-2.80;93.18
9839;BME280;4958;48.150;11.506;2022-12-18T01:05:33;96665.31;;;-2.59;93.11
9839;BME280;4958;48.150;11.506;2022-12-18T01:07:01;96671.41;;;-2.46;91.59
9839;BME280;4958;48.150;11.506;2022-12-18T01:10:15;96671.75;;;-2.35;90.51
9839;BME280;4958;48.150;11.506;2022-12-18T01:13:00;96674.97;;;-2.31;90.19
9839;BME280;4958;48.150;11.506;2022-12-18T01:15:53;96675.66;;;-2.47;90.73
9839;BME280;4958;48.150;11.506;2022-12-18T01:18:54;96689.88;;;-2.46;90.68
9839;BME280;4958;48.150;11.506;2022-12-18T01:21:50;96695.88;;;-2.48;90.75
9839;BME280;4958;48.150;11.506;2022-12-18T01:24:50;96693.44;;;-2.50;90.74
9839;BME280;4958;48.150;11.506;2022-12-18T01:27:45;96710.53;;;-2.37;90.46
9839;BME280;4958;48.150;11.506;2022-12-18T01:30:29;96707.66;;;-2.30;89.86
9839;BME280;4958;48.150;11.506;2022-12-18T01:32:58;96709.97;;;-2.25;89.67
9839;BME280;4958;48.150;11.506;2022-12-18T01:35:54;96708.47;;;-2.29;89.47
9839;BME280;4958;48.150;11.506;2022-12-18T01:38:44;96704.19;;;-2.27;88.92
9839;BME280;4958;48.150;11.506;2022-12-18T01:42:05;96714.13;;;-2.24;89.45
9839;BME280;4958;48.150;11.506;2022-12-18T01:48:21;96712.75;;;-2.13;88.09
9839;BME280;4958;48.150;11.506;2022-12-18T01:50:51;96706.63;;;-2.26;88.45
9839;BME280;4958;48.150;11.506;2022-12-18T01:53:37;96715.59;;;-2.37;88.81
9839;BME280;4958;48.150;11.506;2022-12-18T01:56:16;96710.41;;;-2.34;89.33
9839;BME280;4958;48.150;11.506;2022-12-18T01:59:21;96719.81;;;-2.38;89.24
9839;BME280;4958;48.150;11.506;2022-12-18T02:02:12;96720.63;;;-2.37;89.50
9839;BME280;4958;48.150;11.506;2022-12-18T02:04:56;96718.88;;;-2.54;89.78
9839;BME280;4958;48.150;11.506;2022-12-18T02:07:59;96715.94;;;-2.64;90.47
9839;BME280;4958;48.150;11.506;2022-12-18T02:10:53;96713.00;;;-2.73;91.43
9839;BME280;4958;48.150;11.506;2022-12-18T02:13:56;96696.78;;;-2.87;91.61
9839;BME280;4958;48.150;11.506;2022-12-18T02:16:49;96703.38;;;-3.03;92.73
9839;BME280;4958;48.150;11.506;2022-12-18T02:23:29;96703.72;;;-3.10;94.27
9839;BME280;4958;48.150;11.506;2022-12-18T02:30:17;96700.41;;;-2.92;93.92
9839;BME280;4958;48.150;11.506;2022-12-18T02:43:32;96701.97;;;-3.08;94.48
9839;BME280;4958;48.150;11.506;2022-12-18T02:46:39;96696.34;;;-3.15;95.25
9839;BME280;4958;48.150;11.506;2022-12-18T02:49:45;96707.81;;;-3.08;95.50
9839;BME280;4958;48.150;11.506;2022-12-18T02:53:03;96709.22;;;-3.02;94.99
9839;BME280;4958;48.150;11.506;2022-12-18T02:56:10;96712.84;;;-3.08;95.56
9839;BME280;4958;48.150;11.506;2022-12-18T02:59:39;96715.97;;;-3.03;94.96
9839;BME280;4958;48.150;11.506;2022-12-18T03:05:49;96707.50;;;-3.21;96.16
9839;BME280;4958;48.150;11.506;2022-12-18T03:08:23;96704.22;;;-3.23;96.47
9839;BME280;4958;48.150;11.506;2022-12-18T03:11:33;96694.91;;;-3.21;96.39
9839;BME280;4958;48.150;11.506;2022-12-18T03:14:50;96697.81;;;-3.09;96.00
9839;BME280;4958;48.150;11.506;2022-12-18T03:21:54;96693.28;;;-3.03;95.34
9839;BME280;4958;48.150;11.506;2022-12-18T03:29:08;96699.69;;;-3.15;96.20
9839;BME280;4958;48.150;11.506;2022-12-18T03:38:26;96707.88;;;-3.09;95.80
9839;BME280;4958;48.150;11.506;2022-12-18T03:41:44;96716.16;;;-3.07;94.75
9839;BME280;4958;48.150;11.506;2022-12-18T03:44:47;96714.28;;;-3.02;94.71
9839;BME280;4958;48.150;11.506;2022-12-18T03:49:19;96713.38;;;-3.01;94.27
9839;BME280;4958;48.150;11.506;2022-12-18T04:12:22;96708.38;;;-2.64;91.73
9839;BME280;4958;48.150;11.506;2022-12-18T04:16:57;96710.63;;;-2.76;91.32
9839;BME280;4958;48.150;11.506;2022-12-18T04:18:53;96716.00;;;-2.84;92.04
9839;BME280;4958;48.150;11.506;2022-12-18T04:22:04;96720.91;;;-2.81;92.37
9839;BME280;4958;48.150;11.506;2022-12-18T04:31:41;96711.75;;;-2.84;92.88
9839;BME280;4958;48.150;11.506;2022-12-18T04:38:10;96720.63;;;-2.94;92.77
9839;BME280;4958;48.150;11.506;2022-12-18T04:44:17;96715.72;;;-2.97;93.30
9839;BME280;4958;48.150;11.506;2022-12-18T04:47:06;96727.38;;;-2.94;93.48
9839;BME280;4958;48.150;11.506;2022-12-18T04:49:37;96727.06;;;-2.88;93.20
9839;BME280;4958;48.150;11.506;2022-12-18T04:52:50;96744.19;;;-2.76;91.82
9839;BME280;4958;48.150;11.506;2022-12-18T04:55:37;96747.94;;;-2.85;91.92
9839;BME280;4958;48.150;11.506;2022-12-18T04:58:42;96752.28;;;-2.88;91.66
9839;BME280;4958;48.150;11.506;2022-12-18T05:01:41;96743.25;;;-2.92;91.36
9839;BME280;4958;48.150;11.506;2022-12-18T05:04:33;96744.88;;;-2.91;91.81
9839;BME280;4958;48.150;11.506;2022-12-18T05:07:17;96739.28;;;-2.79;91.50
9839;BME280;4958;48.150;11.506;2022-12-18T05:13:33;96751.06;;;-2.80;92.18
9839;BME280;4958;48.150;11.506;2022-12-18T05:16:09;96740.75;;;-2.73;90.66
9839;BME280;4958;48.150;11.506;2022-12-18T05:19:06;96754.53;;;-2.82;91.17
9839;BME280;4958;48.150;11.506;2022-12-18T05:21:53;96758.16;;;-2.69;90.87
9839;BME280;4958;48.150;11.506;2022-12-18T05:24:28;96754.09;;;-2.71;90.94
9839;BME280;4958;48.150;11.506;2022-12-18T05:27:09;96743.13;;;-2.89;90.67
9839;BME280;4958;48.150;11.506;2022-12-18T05:43:29;96765.13;;;-2.55;88.49
9839;BME280;4958;48.150;11.506;2022-12-18T05:46:47;96762.47;;;-2.52;88.80
9839;BME280;4958;48.150;11.506;2022-12-18T05:49:27;96766.28;;;-2.62;88.87
9839;BME280;4958;48.150;11.506;2022-12-18T05:51:59;96759.94;;;-2.71;89.25
9839;BME280;4958;48.150;11.506;2022-12-18T06:04:52;96784.69;;;-2.99;90.41
9839;BME280;4958;48.150;11.506;2022-12-18T06:07:49;96787.50;;;-3.07;90.82
9839;BME280;4958;48.150;11.506;2022-12-18T06:10:52;96770.78;;;-3.08;91.26
9839;BME280;4958;48.150;11.506;2022-12-18T06:13:35;96768.19;;;-3.06;90.55
9839;BME280;4958;48.150;11.506;2022-12-18T06:16:03;96772.47;;;-3.08;90.71
9839;BME280;4958;48.150;11.506;2022-12-18T06:18:31;96773.44;;;-3.11;91.02
9839;BME280;4958;48.150;11.506;2022-12-18T06:20:59;96767.22;;;-3.04;90.60
9839;BME280;4958;48.150;11.506;2022-12-18T06:23:27;96772.53;;;-2.90;89.80
9839;BME280;4958;48.150;11.506;2022-12-18T06:25:53;96785.19;;;-2.91;89.08
9839;BME280;4958;48.150;11.506;2022-12-18T06:28:20;96786.31;;;-2.98;89.75
9839;BME280;4958;48.150;11.506;2022-12-18T06:30:48;96783.78;;;-2.98;90.23
9839;BME280;4958;48.150;11.506;2022-12-18T06:33:15;96783.53;;;-2.92;89.88
9839;BME280;4958;48.150;11.506;2022-12-18T06:35:43;96797.16;;;-2.96;90.01
9839;BME280;4958;48.150;11.506;2022-12-18T06:38:10;96803.75;;;-2.94;89.92
9839;BME280;4958;48.150;11.506;2022-12-18T06:40:37;96800.50;;;-2.96;90.43
9839;BME280;4958;48.150;11.506;2022-12-18T06:43:04;96800.84;;;-2.85;89.74
9839;BME280;4958;48.150;11.506;2022-12-18T06:45:31;96804.81;;;-2.79;89.55
9839;BME280;4958;48.150;11.506;2022-12-18T06:47:57;96798.38;;;-2.86;89.21
9839;BME280;4958;48.150;11.506;2022-12-18T06:50:24;96806.63;;;-2.83;88.74
9839;BME280;4958;48.150;11.506;2022-12-18T06:52:52;96806.50;;;-2.80;88.26
9839;BME280;4958;48.150;11.506;2022-12-18T06:55:18;96812.69;;;-2.87;88.61
9839;BME280;4958;48.150;11.506;2022-12-18T06:57:45;96818.88;;;-2.73;88.29
9839;BME280;4958;48.150;11.506;2022-12-18T07:00:12;96828.72;;;-2.69;87.80
9839;BME280;4958;48.150;11.506;2022-12-18T07:02:38;96824.50;;;-2.68;87.54
9839;BME280;4958;48.150;11.506;2022-12-18T07:05:06;96831.00;;;-2.63;87.78
9839;BME280;4958;48.150;11.506;2022-12-18T07:07:33;96832.19;;;-2.51;87.01
9839;BME280;4958;48.150;11.506;2022-12-18T07:10:01;96831.25;;;-2.69;85.96
9839;BME280;4958;48.150;11.506;2022-12-18T07:12:28;96831.03;;;-2.83;86.54
9839;BME280;4958;48.150;11.506;2022-12-18T07:14:54;96833.06;;;-2.91;87.10
9839;BME280;4958;48.150;11.506;2022-12-18T07:17:21;96840.75;;;-2.94;87.47
9839;BME280;4958;48.150;11.506;2022-12-18T07:19:47;96842.69;;;-2.81;87.28
9839;BME280;4958;48.150;11.506;2022-12-18T07:22:14;96841.09;;;-2.63;86.75
9839;BME280;4958;48.150;11.506;2022-12-18T07:24:40;96850.91;;;-2.57;86.00
9839;BME280;4958;48.150;11.506;2022-12-18T07:27:08;96846.81;;;-2.59;86.06
9839;BME280;4958;48.150;11.506;2022-12-18T07:29:34;96845.88;;;-2.57;86.52
9839;BME280;4958;48.150;11.506;2022-12-18T07:32:01;96854.94;;;-2.53;86.60
9839;BME280;4958;48.150;11.506;2022-12-18T07:34:27;96852.06;;;-2.45;86.25
9839;BME280;4958;48.150;11.506;2022-12-18T07:36:54;96848.47;;;-2.58;87.14
9839;BME280;4958;48.150;11.506;2022-12-18T07:39:20;96838.50;;;-2.61;87.50
9839;BME280;4958;48.150;11.506;2022-12-18T07:41:47;96834.22;;;-2.59;88.36
9839;BME280;4958;48.150;11.506;2022-12-18T07:44:35;96837.84;;;-2.46;87.21
9839;BME280;4958;48.150;11.506;2022-12-18T07:47:01;96835.88;;;-2.39;85.94
9839;BME280;4958;48.150;11.506;2022-12-18T07:49:28;96847.44;;;-2.54;85.63
9839;BME280;4958;48.150;11.506;2022-12-18T07:51:55;96855.50;;;-2.66;86.96
9839;BME280;4958;48.150;11.506;2022-12-18T07:54:22;96841.56;;;-2.73;87.49
9839;BME280;4958;48.150;11.506;2022-12-18T07:56:48;96841.84;;;-2.81;87.75
9839;BME280;4958;48.150;11.506;2022-12-18T07:59:15;96846.84;;;-2.80;87.53
9839;BME280;4958;48.150;11.506;2022-12-18T08:01:43;96846.16;;;-3.03;87.05
9839;BME280;4958;48.150;11.506;2022-12-18T08:04:09;96853.69;;;-3.24;87.87
9839;BME280;4958;48.150;11.506;2022-12-18T08:06:36;96861.28;;;-3.25;88.58
9839;BME280;4958;48.150;11.506;2022-12-18T08:09:02;96861.13;;;-3.21;89.22
9839;BME280;4958;48.150;11.506;2022-12-18T08:11:29;96862.94;;;-3.04;88.33
9839;BME280;4958;48.150;11.506;2022-12-18T08:13:56;96860.78;;;-2.91;87.45
9839;BME280;4958;48.150;11.506;2022-12-18T08:16:23;96865.34;;;-2.81;86.47
9839;BME280;4958;48.150;11.506;2022-12-18T08:18:53;96876.50;;;-2.86;86.97
9839;BME280;4958;48.150;11.506;2022-12-18T08:21:22;96870.59;;;-2.85;86.82
9839;BME280;4958;48.150;11.506;2022-12-18T08:23:49;96866.88;;;-2.76;86.90
9839;BME280;4958;48.150;11.506;2022-12-18T08:26:16;96872.63;;;-2.73;86.09
9839;BME280;4958;48.150;11.506;2022-12-18T08:28:42;96875.84;;;-2.69;86.16
9839;BME280;4958;48.150;11.506;2022-12-18T08:31:09;96876.88;;;-2.55;86.20
9839;BME280;4958;48.150;11.506;2022-12-18T08:33:37;96866.94;;;-2.39;85.30
9839;BME280;4958;48.150;11.506;2022-12-18T08:36:06;96872.94;;;-2.41;83.78
9839;BME280;4958;48.150;11.506;2022-12-18T08:38:33;96869.47;;;-2.39;84.27
9839;BME280;4958;48.150;11.506;2022-12-18T08:41:00;96869.47;;;-2.39;84.69
9839;BME280;4958;48.150;11.506;2022-12-18T08:43:27;96875.59;;;-2.45;83.93
9839;BME280;4958;48.150;11.506;2022-12-18T08:46:11;96880.56;;;-2.43;83.67
9839;BME280;4958;48.150;11.506;2022-12-18T08:48:37;96881.34;;;-2.41;83.53
9839;BME280;4958;48.150;11.506;2022-12-18T08:51:05;96891.19;;;-2.55;83.75
9839;BME280;4958;48.150;11.506;2022-12-18T08:53:31;96880.88;;;-2.69;84.76
9839;BME280;4958;48.150;11.506;2022-12-18T08:55:58;96878.66;;;-2.77;84.72
9839;BME280;4958;48.150;11.506;2022-12-18T08:58:24;96881.25;;;-2.79;84.89
9839;BME280;4958;48.150;11.506;2022-12-18T09:00:51;96884.88;;;-2.86;86.17
9839;BME280;4958;48.150;11.506;2022-12-18T09:03:18;96893.38;;;-2.88;85.88
9839;BME280;4958;48.150;11.506;2022-12-18T09:05:45;96891.47;;;-3.03;86.04
9839;BME280;4958;48.150;11.506;2022-12-18T09:08:13;96886.56;;;-3.06;86.70
9839;BME280;4958;48.150;11.506;2022-12-18T09:10:44;96889.19;;;-3.08;86.93
9839;BME280;4958;48.150;11.506;2022-12-18T09:13:11;96894.28;;;-3.09;87.19
9839;BME280;4958;48.150;11.506;2022-12-18T09:15:40;96900.94;;;-3.08;86.85
9839;BME280;4958;48.150;11.506;2022-12-18T09:18:07;96899.88;;;-3.03;87.31
9839;BME280;4958;48.150;11.506;2022-12-18T09:20:34;96897.53;;;-2.87;86.94
9839;BME280;4958;48.150;11.506;2022-12-18T09:23:01;96889.16;;;-2.67;86.02
9839;BME280;4958;48.150;11.506;2022-12-18T09:25:30;96886.50;;;-2.64;84.38
9839;BME280;4958;48.150;11.506;2022-12-18T09:27:58;96886.63;;;-2.67;84.72
9839;BME280;4958;48.150;11.506;2022-12-18T09:30:24;96888.22;;;-2.65;85.85
9839;BME280;4958;48.150;11.506;2022-12-18T09:32:51;96881.19;;;-2.77;85.40
9839;BME280;4958;48.150;11.506;2022-12-18T09:35:17;96884.41;;;-2.73;85.75
9839;BME280;4958;48.150;11.506;2022-12-18T09:37:44;96887.84;;;-2.56;85.13
9839;BME280;4958;48.150;11.506;2022-12-18T09:40:13;96883.78;;;-2.39;83.53
9839;BME280;4958;48.150;11.506;2022-12-18T09:42:45;96883.78;;;-2.39;83.02
9839;BME280;4958;48.150;11.506;2022-12-18T09:45:14;96880.47;;;-2.60;82.93
9839;BME280;4958;48.150;11.506;2022-12-18T09:47:43;96874.66;;;-2.62;83.62
9839;BME280;4958;48.150;11.506;2022-12-18T09:50:21;96879.28;;;-2.52;83.11
9839;BME280;4958;48.150;11.506;2022-12-18T09:52:51;96879.28;;;-2.52;83.03
9839;BME280;4958;48.150;11.506;2022-12-18T09:55:24;96879.97;;;-2.68;83.44
9839;BME280;4958;48.150;11.506;2022-12-18T09:57:56;96880.28;;;-2.76;83.56
9839;BME280;4958;48.150;11.506;2022-12-18T10:00:25;96875.63;;;-2.65;83.99
9839;BME280;4958;48.150;11.506;2022-12-18T10:02:53;96879.41;;;-2.55;84.02
9839;BME280;4958;48.150;11.506;2022-12-18T10:05:30;96876.75;;;-2.52;83.79
9839;BME280;4958;48.150;11.506;2022-12-18T10:08:03;96870.00;;;-2.51;84.11
9839;BME280;4958;48.150;11.506;2022-12-18T10:10:37;96864.91;;;-2.31;83.75
9839;BME280;4958;48.150;11.506;2022-12-18T10:13:20;96861.50;;;-2.30;82.26
9839;BME280;4958;48.150;11.506;2022-12-18T10:15:57;96857.31;;;-2.50;83.14
9839;BME280;4958;48.150;11.506;2022-12-18T10:18:36;96858.88;;;-2.47;84.30
9839;BME280;4958;48.150;11.506;2022-12-18T10:21:09;96860.97;;;-2.18;86.90
9839;BME280;4958;48.150;11.506;2022-12-18T10:23:42;96859.16;;;-2.14;81.78
9839;BME280;4958;48.150;11.506;2022-12-18T10:26:13;96857.03;;;-2.04;81.14
9839;BME280;4958;48.150;11.506;2022-12-18T10:28:41;96840.44;;;-2.10;81.56
9839;BME280;4958;48.150;11.506;2022-12-18T10:31:13;96841.56;;;-2.16;81.01
9839;BME280;4958;48.150;11.506;2022-12-18T10:33:42;96840.31;;;-2.26;81.07
9839;BME280;4958;48.150;11.506;2022-12-18T10:36:08;96839.34;;;-2.23;81.42
9839;BME280;4958;48.150;11.506;2022-12-18T10:38:35;96833.44;;;-2.03;81.18
9839;BME280;4958;48.150;11.506;2022-12-18T10:41:04;96828.88;;;-2.14;80.44
9839;BME280;4958;48.150;11.506;2022-12-18T10:43:35;96830.34;;;-2.10;80.77
9839;BME280;4958;48.150;11.506;2022-12-18T10:46:14;96834.66;;;-2.12;80.64
9839;BME280;4958;48.150;11.506;2022-12-18T10:48:52;96840.31;;;-2.07;80.30
9839;BME280;4958;48.150;11.506;2022-12-18T10:51:21;96840.66;;;-2.15;81.09
9839;BME280;4958;48.150;11.506;2022-12-18T10:53:54;96836.97;;;-2.08;81.45
9839;BME280;4958;48.150;11.506;2022-12-18T10:56:22;96830.50;;;-1.94;80.42
9839;BME280;4958;48.150;11.506;2022-12-18T10:58:56;96836.44;;;-2.14;80.38
9839;BME280;4958;48.150;11.506;2022-12-18T11:01:24;96833.56;;;-2.25;81.48
9839;BME280;4958;48.150;11.506;2022-12-18T11:04:00;96850.13;;;-2.38;81.57
9839;BME280;4958;48.150;11.506;2022-12-18T11:06:27;96855.44;;;-2.26;81.94
9839;BME280;4958;48.150;11.506;2022-12-18T11:08:58;96850.00;;;-2.17;80.99
9839;BME280;4958;48.150;11.506;2022-12-18T11:11:25;96850.53;;;-2.10;80.66
9839;BME280;4958;48.150;11.506;2022-12-18T11:13:59;96856.41;;;-2.10;80.17
9839;BME280;4958;48.150;11.506;2022-12-18T11:16:29;96868.06;;;-2.26;80.52
9839;BME280;4958;48.150;11.506;2022-12-18T11:19:10;96873.91;;;-2.25;81.65
9839;BME280;4958;48.150;11.506;2022-12-18T11:21:39;96867.84;;;-2.21;81.24
9839;BME280;4958;48.150;11.506;2022-12-18T11:24:21;96853.88;;;-2.10;80.66
9839;BME280;4958;48.150;11.506;2022-12-18T11:26:51;96855.56;;;-1.91;80.33
9839;BME280;4958;48.150;11.506;2022-12-18T11:29:22;96855.41;;;-1.69;79.65
9839;BME280;4958;48.150;11.506;2022-12-18T11:31:51;96848.41;;;-1.82;78.82
9839;BME280;4958;48.150;11.506;2022-12-18T11:34:21;96849.44;;;-1.86;79.26
9839;BME280;4958;48.150;11.506;2022-12-18T11:36:49;96845.03;;;-1.99;79.07
9839;BME280;4958;48.150;11.506;2022-12-18T11:39:18;96844.47;;;-2.06;79.50
9839;BME280;4958;48.150;11.506;2022-12-18T11:41:49;96837.19;;;-2.12;80.04
9839;BME280;4958;48.150;11.506;2022-12-18T11:44:42;96840.19;;;-2.04;80.14
9839;BME280;4958;48.150;11.506;2022-12-18T11:47:15;96832.03;;;-1.92;79.63
9839;BME280;4958;48.150;11.506;2022-12-18T11:49:47;96826.88;;;-2.08;80.11
9839;BME280;4958;48.150;11.506;2022-12-18T11:52:18;96827.16;;;-2.14;80.16
9839;BME280;4958;48.150;11.506;2022-12-18T11:54:45;96828.06;;;-2.15;79.67
9839;BME280;4958;48.150;11.506;2022-12-18T11:57:17;96827.63;;;-2.05;80.65
9839;BME280;4958;48.150;11.506;2022-12-18T11:59:51;96817.72;;;-2.10;80.27
9839;BME280;4958;48.150;11.506;2022-12-18T12:02:36;96823.00;;;-1.96;80.69
9839;BME280;4958;48.150;11.506;2022-12-18T12:05:34;96817.88;;;-1.94;80.49
9839;BME280;4958;48.150;11.506;2022-12-18T12:08:14;96818.59;;;-1.92;81.51
9839;BME280;4958;48.150;11.506;2022-12-18T12:10:52;96814.50;;;-1.76;80.53
9839;BME280;4958;48.150;11.506;2022-12-18T12:13:30;96816.84;;;-1.54;80.20
9839;BME280;4958;48.150;11.506;2022-12-18T12:16:10;96814.53;;;-1.59;79.07
9839;BME280;4958;48.150;11.506;2022-12-18T12:18:56;96812.84;;;-1.41;78.69
9839;BME280;4958;48.150;11.506;2022-12-18T12:21:34;96814.34;;;-1.54;78.39
9839;BME280;4958;48.150;11.506;2022-12-18T12:24:14;96811.13;;;-1.58;79.38
9839;BME280;4958;48.150;11.506;2022-12-18T12:26:49;96807.97;;;-1.80;79.04
9839;BME280;4958;48.150;11.506;2022-12-18T12:29:27;96800.28;;;-1.96;80.79
9839;BME280;4958;48.150;11.506;2022-12-18T12:32:08;96802.19;;;-2.01;80.33
9839;BME280;4958;48.150;11.506;2022-12-18T12:34:45;96806.56;;;-2.04;80.94
9839;BME280;4958;48.150;11.506;2022-12-18T12:37:22;96798.97;;;-1.86;80.75
9839;BME280;4958;48.150;11.506;2022-12-18T12:39:52;96797.66;;;-1.76;83.06
9839;BME280;4958;48.150;11.506;2022-12-18T12:42:26;96798.16;;;-1.69;83.14
9839;BME280;4958;48.150;11.506;2022-12-18T12:45:18;96788.66;;;-1.81;80.90
9839;BME280;4958;48.150;11.506;2022-12-18T12:47:49;96797.19;;;-1.84;80.30
9839;BME280;4958;48.150;11.506;2022-12-18T12:50:19;96794.19;;;-1.92;80.86
9839;BME280;4958;48.150;11.506;2022-12-18T12:52:50;96796.00;;;-1.94;79.90
9839;BME280;4958;48.150;11.506;2022-12-18T12:55:20;96797.91;;;-1.99;80.52
9839;BME280;4958;48.150;11.506;2022-12-18T12:57:54;96798.28;;;-1.89;80.51
9839;BME280;4958;48.150;11.506;2022-12-18T13:00:25;96810.75;;;-1.86;80.56
9839;BME280;4958;48.150;11.506;2022-12-18T13:02:59;96800.00;;;-1.73;80.12
9839;BME280;4958;48.150;11.506;2022-12-18T13:05:34;96802.34;;;-1.51;79.91
9839;BME280;4958;48.150;11.506;2022-12-18T13:08:07;96804.75;;;-1.48;78.82
9839;BME280;4958;48.150;11.506;2022-12-18T13:10:35;96805.19;;;-1.40;78.39
9839;BME280;4958;48.150;11.506;2022-12-18T13:13:04;96805.88;;;-1.36;78.26
9839;BME280;4958;48.150;11.506;2022-12-18T13:15:33;96803.84;;;-1.29;78.69
9839;BME280;4958;48.150;11.506;2022-12-18T13:18:19;96805.63;;;-1.14;78.22
9839;BME280;4958;48.150;11.506;2022-12-18T13:20:49;96817.00;;;-1.06;77.52
9839;BME280;4958;48.150;11.506;2022-12-18T13:23:26;96822.81;;;-1.03;77.14
9839;BME280;4958;48.150;11.506;2022-12-18T13:25:54;96816.13;;;-1.05;76.01
9839;BME280;4958;48.150;11.506;2022-12-18T13:28:22;96804.16;;;-1.18;76.47
9839;BME280;4958;48.150;11.506;2022-12-18T13:30:55;96807.34;;;-1.32;76.74
9839;BME280;4958;48.150;11.506;2022-12-18T13:33:40;96804.75;;;-1.48;78.35
9839;BME280;4958;48.150;11.506;2022-12-18T13:36:29;96807.31;;;-1.66;78.11
9839;BME280;4958;48.150;11.506;2022-12-18T13:39:21;96798.56;;;-1.59;78.34
9839;BME280;4958;48.150;11.506;2022-12-18T13:41:49;96808.59;;;-1.58;78.64
9839;BME280;4958;48.150;11.506;2022-12-18T13:44:25;96812.00;;;-1.59;77.76
9839;BME280;4958;48.150;11.506;2022-12-18T13:46:52;96812.44;;;-1.68;78.70
9839;BME280;4958;48.150;11.506;2022-12-18T13:49:23;96805.56;;;-1.47;83.54
9839;BME280;4958;48.150;11.506;2022-12-18T13:51:55;96799.97;;;-0.52;100.00
9839;BME280;4958;48.150;11.506;2022-12-18T13:54:26;96790.59;;;-0.50;83.42
9839;BME280;4958;48.150;11.506;2022-12-18T13:56:54;96795.75;;;-1.01;80.29
9839;BME280;4958;48.150;11.506;2022-12-18T13:59:22;96790.47;;;-1.31;79.86
9839;BME280;4958;48.150;11.506;2022-12-18T14:01:52;96791.13;;;-1.62;80.63
9839;BME280;4958;48.150;11.506;2022-12-18T14:04:26;96794.16;;;-1.73;81.18
9839;BME280;4958;48.150;11.506;2022-12-18T14:06:57;96800.16;;;-1.93;81.41
9839;BME280;4958;48.150;11.506;2022-12-18T14:09:26;96789.75;;;-1.87;82.23
9839;BME280;4958;48.150;11.506;2022-12-18T14:11:55;96798.25;;;-1.70;81.35
9839;BME280;4958;48.150;11.506;2022-12-18T14:14:45;96806.63;;;-1.70;80.98
9839;BME280;4958;48.150;11.506;2022-12-18T14:17:13;96801.47;;;-1.86;81.56
9839;BME280;4958;48.150;11.506;2022-12-18T14:19:44;96799.66;;;-2.01;82.49
9839;BME280;4958;48.150;11.506;2022-12-18T14:22:17;96808.81;;;-1.98;83.09
9839;BME280;4958;48.150;11.506;2022-12-18T14:24:45;96815.38;;;-2.13;84.42
9839;BME280;4958;48.150;11.506;2022-12-18T14:27:20;96819.44;;;-2.11;83.36
9839;BME280;4958;48.150;11.506;2022-12-18T14:29:47;96816.53;;;-2.20;84.12
9839;BME280;4958;48.150;11.506;2022-12-18T14:32:14;96818.09;;;-2.18;84.56
9839;BME280;4958;48.150;11.506;2022-12-18T14:34:42;96815.63;;;-2.19;85.47
9839;BME280;4958;48.150;11.506;2022-12-18T14:37:10;96811.22;;;-2.14;84.95
9839;BME280;4958;48.150;11.506;2022-12-18T14:39:39;96810.66;;;-2.21;84.87
9839;BME280;4958;48.150;11.506;2022-12-18T14:42:05;96813.13;;;-2.38;84.58
9839;BME280;4958;48.150;11.506;2022-12-18T14:44:31;96805.69;;;-2.41;84.79
9839;BME280;4958;48.150;11.506;2022-12-18T14:46:58;96806.63;;;-2.44;85.10
9839;BME280;4958;48.150;11.506;2022-12-18T14:49:27;96812.69;;;-2.48;85.52
9839;BME280;4958;48.150;11.506;2022-12-18T14:51:57;96825.84;;;-2.60;85.95
9839;BME280;4958;48.150;11.506;2022-12-18T14:54:24;96810.91;;;-2.64;86.26
9839;BME280;4958;48.150;11.506;2022-12-18T14:56:57;96811.28;;;-2.53;86.29
9839;BME280;4958;48.150;11.506;2022-12-18T14:59:27;96805.00;;;-2.45;85.45
9839;BME280;4958;48.150;11.506;2022-12-18T15:01:59;96807.81;;;-2.32;84.87
9839;BME280;4958;48.150;11.506;2022-12-18T15:04:28;96805.69;;;-2.22;84.47
9839;BME280;4958;48.150;11.506;2022-12-18T15:07:13;96802.59;;;-2.29;84.51
9839;BME280;4958;48.150;11.506;2022-12-18T15:10:00;96813.50;;;-2.28;84.54
9839;BME280;4958;48.150;11.506;2022-12-18T15:12:33;96810.72;;;-2.22;84.77
9839;BME280;4958;48.150;11.506;2022-12-18T15:15:01;96814.56;;;-2.32;84.75
9839;BME280;4958;48.150;11.506;2022-12-18T15:17:27;96811.22;;;-2.33;85.05
9839;BME280;4958;48.150;11.506;2022-12-18T15:20:00;96811.16;;;-2.31;84.69
9839;BME280;4958;48.150;11.506;2022-12-18T15:22:28;96812.28;;;-2.38;85.03
9839;BME280;4958;48.150;11.506;2022-12-18T15:24:57;96813.81;;;-2.34;85.43
9839;BME280;4958;48.150;11.506;2022-12-18T15:27:27;96812.44;;;-2.41;85.76
9839;BME280;4958;48.150;11.506;2022-12-18T15:30:18;96818.78;;;-2.33;85.86
9839;BME280;4958;48.150;11.506;2022-12-18T15:32:45;96823.59;;;-2.28;85.98
9839;BME280;4958;48.150;11.506;2022-12-18T15:35:16;96818.91;;;-2.17;85.29
9839;BME280;4958;48.150;11.506;2022-12-18T15:37:43;96823.97;;;-2.17;85.00
9839;BME280;4958;48.150;11.506;2022-12-18T15:40:13;96814.56;;;-2.14;84.29
9839;BME280;4958;48.150;11.506;2022-12-18T15:42:40;96812.16;;;-2.17;83.91
9839;BME280;4958;48.150;11.506;2022-12-18T15:45:25;96807.19;;;-2.37;85.16
9839;BME280;4958;48.150;11.506;2022-12-18T15:47:52;96809.59;;;-2.34;85.67
9839;BME280;4958;48.150;11.506;2022-12-18T15:50:19;96802.28;;;-2.40;85.58
9839;BME280;4958;48.150;11.506;2022-12-18T15:52:46;96807.38;;;-2.41;86.04
9839;BME280;4958;48.150;11.506;2022-12-18T15:55:16;96806.22;;;-2.53;86.43
9839;BME280;4958;48.150;11.506;2022-12-18T15:58:00;96807.78;;;-2.69;86.93
9839;BME280;4958;48.150;11.506;2022-12-18T16:00:28;96805.59;;;-2.58;86.41
9839;BME280;4958;48.150;11.506;2022-12-18T16:02:55;96806.16;;;-2.52;86.06
9839;BME280;4958;48.150;11.506;2022-12-18T16:05:22;96802.06;;;-2.54;86.74
9839;BME280;4958;48.150;11.506;2022-12-18T16:07:49;96802.06;;;-2.54;86.77
9839;BME280;4958;48.150;11.506;2022-12-18T16:10:16;96802.00;;;-2.53;86.97
9839;BME280;4958;48.150;11.506;2022-12-18T16:12:42;96804.97;;;-2.63;87.70
9839;BME280;4958;48.150;11.506;2022-12-18T16:15:10;96805.16;;;-2.68;87.58
9839;BME280;4958;48.150;11.506;2022-12-18T16:17:40;96812.09;;;-2.53;87.23
9839;BME280;4958;48.150;11.506;2022-12-18T16:20:11;96809.81;;;-2.59;86.90
9839;BME280;4958;48.150;11.506;2022-12-18T16:22:40;96808.56;;;-2.69;87.14
9839;BME280;4958;48.150;11.506;2022-12-18T16:25:10;96800.41;;;-2.74;86.59
9839;BME280;4958;48.150;11.506;2022-12-18T16:27:42;96801.53;;;-2.81;86.61
9839;BME280;4958;48.150;11.506;2022-12-18T16:30:12;96800.38;;;-2.93;86.95